Aviation Digital Data Service (ADDS)

Output produced by METARs form (1357 UTC 24 August 2019)
found at http://www.aviationweather.gov/metar/data/
 
Forecast for: LTAI (ANTALYA (CIV/MIL, TR)
Text: TAF LTAI 241040Z 2412/2512 18012KT 9999 FEW030
Forecast period: 1200 to 1500 UTC 24 August 2019
Forecast type: FROM: standard forecast or significant change
Winds: from the S (180 degrees) at 14 MPH (12 knots; 6.2 m/s)
Visibility: 6 or more miles 10+ km)
Ceiling: at least 12,000 feet AGL
Clouds: few clouds at 3000 feet AGL
Weather: no significant weather forecast for this period
Text: BECMG 2415/2418 34008KT CAVOK
Forecast period: 1500 UTC 24 August 2019 to 0600 UTC 25 August 2019
Forecast type: BECOMING: Conditions expected to become as follows by 1800 UTC 24 August 2019
Winds: from the NNW (340 degrees) at 9 MPH (8 knots; 4.1 m/s)
Visibility: 6 or more miles 10+ km)
Ceiling: unknown
Clouds: missing
Weather: NSW  (no significant weather)
Text: BECMG 2506/2510 18012KT SCT030
Forecast period: 0600 to 1200 UTC 25 August 2019
Forecast type: BECOMING: Conditions expected to become as follows by 1000 UTC 25 August 2019
Winds: from the S (180 degrees) at 14 MPH (12 knots; 6.2 m/s)
Visibility: 6 or more miles 10+ km)
Ceiling: at least 12,000 feet AGL
Clouds: scattered clouds at 3000 feet AGL
Weather: NSW  (no significant weather)